createdAt,value
2019-03-12T00:00:26.194Z,1.85
2019-03-12T00:02:57.932Z,1.76
2019-03-12T00:05:29.931Z,1.83
2019-03-12T00:08:01.651Z,1.81
2019-03-12T00:10:33.628Z,1.81
2019-03-12T00:13:05.505Z,1.77
2019-03-12T00:15:37.388Z,1.77
2019-03-12T00:18:09.115Z,1.74
2019-03-12T00:20:40.848Z,1.64
2019-03-12T00:23:12.647Z,1.69
2019-03-12T00:25:44.467Z,1.60
2019-03-12T00:28:16.195Z,1.62
2019-03-12T00:30:47.998Z,1.65
2019-03-12T00:33:19.722Z,1.60
2019-03-12T00:35:51.530Z,1.60
2019-03-12T00:38:23.336Z,1.60
2019-03-12T00:40:55.342Z,1.64
2019-03-12T00:43:27.054Z,1.56
2019-03-12T00:45:58.879Z,1.60
2019-03-12T00:48:30.652Z,1.57
2019-03-12T00:51:02.463Z,1.53
2019-03-12T00:53:34.176Z,1.56
2019-03-12T00:56:06.071Z,1.52
2019-03-12T00:58:37.790Z,1.54
2019-03-12T01:01:09.754Z,1.52
2019-03-12T01:03:41.480Z,1.54
2019-03-12T01:06:13.466Z,1.52
2019-03-12T01:08:45.255Z,1.43
2019-03-12T01:11:16.990Z,1.48
2019-03-12T01:13:48.712Z,1.47
2019-03-12T01:16:20.525Z,1.46
2019-03-12T01:18:52.589Z,1.46
2019-03-12T01:21:24.680Z,1.53
2019-03-12T01:23:56.824Z,1.54
2019-03-12T01:26:28.583Z,1.47
2019-03-12T01:29:00.375Z,1.48
2019-03-12T01:31:32.446Z,1.54
2019-03-12T01:34:04.173Z,1.53
2019-03-12T01:36:36.179Z,1.56
2019-03-12T01:39:08.705Z,1.54
2019-03-12T01:41:40.584Z,1.47
2019-03-12T01:44:12.315Z,1.51
2019-03-12T01:46:44.137Z,1.47
2019-03-12T01:49:17.019Z,1.52
2019-03-12T01:51:48.844Z,1.53
2019-03-12T01:54:20.581Z,1.50
2019-03-12T01:56:52.436Z,1.45
2019-03-12T01:59:24.173Z,1.44
2019-03-12T02:01:56.005Z,1.47
2019-03-12T02:04:27.810Z,1.49
2019-03-12T02:06:59.633Z,1.51
2019-03-12T02:09:31.999Z,1.51
2019-03-12T02:12:03.964Z,1.45
2019-03-12T02:14:35.979Z,1.56
2019-03-12T02:17:08.299Z,1.56
2019-03-12T02:19:40.275Z,1.56
2019-03-12T02:22:12.029Z,1.58
2019-03-12T02:24:52.750Z,1.50
2019-03-12T02:27:17.526Z,1.55
2019-03-12T02:29:49.261Z,1.58
2019-03-12T02:32:21.036Z,1.54
2019-03-12T02:34:52.914Z,1.59
2019-03-12T02:37:24.728Z,1.54
2019-03-12T02:39:56.455Z,1.53
2019-03-12T02:42:28.192Z,1.38
2019-03-12T02:45:00.534Z,1.58
2019-03-12T02:47:34.020Z,1.56
2019-03-12T02:50:07.371Z,1.50
2019-03-12T02:52:39.193Z,1.53
2019-03-12T02:55:11.219Z,1.54
2019-03-12T02:57:42.993Z,1.43
2019-03-12T03:00:20.162Z,1.44
2019-03-12T03:02:52.386Z,1.50
2019-03-12T03:05:24.705Z,1.53
2019-03-12T03:08:02.140Z,1.36
2019-03-12T03:10:33.979Z,1.48
2019-03-12T03:13:05.793Z,1.50
2019-03-12T03:15:41.054Z,1.50
2019-03-12T03:18:13.028Z,1.48
2019-03-12T03:20:48.216Z,1.35
2019-03-12T03:23:20.015Z,1.48
2019-03-12T03:25:51.836Z,1.47
2019-03-12T03:28:23.569Z,1.41
2019-03-12T03:30:55.391Z,1.42
2019-03-12T03:33:27.195Z,1.39
2019-03-12T03:35:59.002Z,1.42
2019-03-12T03:38:30.989Z,1.42
2019-03-12T03:41:03.113Z,1.40
2019-03-12T03:43:35.312Z,1.39
2019-03-12T03:46:07.216Z,1.41
2019-03-12T03:48:38.964Z,1.37
2019-03-12T03:51:11.789Z,1.33
2019-03-12T03:53:43.619Z,1.19
2019-03-12T03:56:15.431Z,1.09
2019-03-12T03:58:47.506Z,1.06
2019-03-12T04:01:19.396Z,1.07
2019-03-12T04:03:51.290Z,1.11
2019-03-12T04:06:23.093Z,1.22
2019-03-12T04:08:54.840Z,1.12
2019-03-12T04:11:26.573Z,1.05
2019-03-12T04:13:58.321Z,1.15
2019-03-12T04:16:30.052Z,1.06
2019-03-12T04:19:01.875Z,0.90
2019-03-12T04:21:33.706Z,1.18
2019-03-12T04:24:05.903Z,1.14
2019-03-12T04:26:37.759Z,1.20
2019-03-12T04:29:09.581Z,1.06
2019-03-12T04:31:42.281Z,1.16
2019-03-12T04:34:17.171Z,1.17
2019-03-12T04:36:50.531Z,1.09
2019-03-12T04:39:22.429Z,0.97
2019-03-12T04:41:54.250Z,0.99
2019-03-12T04:44:25.994Z,1.18
2019-03-12T04:46:57.877Z,1.26
2019-03-12T04:49:29.619Z,1.13
2019-03-12T04:52:01.438Z,0.89
2019-03-12T04:54:33.422Z,0.92
2019-03-12T04:57:05.229Z,1.05
2019-03-12T04:59:37.304Z,1.16
2019-03-12T05:02:09.828Z,1.08
2019-03-12T05:04:41.568Z,1.06
2019-03-12T05:07:13.293Z,0.95
2019-03-12T05:09:45.039Z,0.92
2019-03-12T05:12:16.848Z,0.86
2019-03-12T05:14:48.743Z,0.83
2019-03-12T05:17:29.793Z,0.68
2019-03-12T05:20:01.525Z,0.80
2019-03-12T05:22:33.331Z,0.76
2019-03-12T05:25:05.717Z,0.85
2019-03-12T05:27:37.603Z,0.76
2019-03-12T05:30:14.583Z,0.66
2019-03-12T05:32:46.473Z,0.62
2019-03-12T05:35:18.369Z,0.45
2019-03-12T05:37:50.173Z,0.60
2019-03-12T05:40:22.006Z,0.70
2019-03-12T05:42:53.887Z,0.74
2019-03-12T05:45:25.959Z,0.61
2019-03-12T05:47:57.861Z,0.70
2019-03-12T05:50:29.845Z,0.55
2019-03-12T05:53:14.002Z,0.45
2019-03-12T05:55:45.925Z,0.48
2019-03-12T05:58:17.821Z,0.54
2019-03-12T06:00:49.644Z,0.60
2019-03-12T06:03:21.522Z,0.61
2019-03-12T06:05:53.411Z,0.42
2019-03-12T06:08:25.314Z,0.43
2019-03-12T06:10:57.541Z,0.60
2019-03-12T06:13:29.779Z,0.53
2019-03-12T06:16:02.057Z,0.27
2019-03-12T06:18:33.801Z,0.61
2019-03-12T06:21:06.131Z,0.71
2019-03-12T06:23:37.896Z,0.56
2019-03-12T06:26:09.788Z,0.48
2019-03-12T06:28:41.762Z,0.48
2019-03-12T06:31:31.096Z,0.72
2019-03-12T06:34:18.871Z,0.79
2019-03-12T06:37:04.582Z,0.68
2019-03-12T06:39:44.771Z,0.70
2019-03-12T06:42:27.625Z,0.71
2019-03-12T06:45:24.785Z,0.89
2019-03-12T06:48:06.087Z,0.80
2019-03-12T06:50:55.401Z,1.04
2019-03-12T06:53:43.801Z,1.00
2019-03-12T06:56:32.840Z,0.86
2019-03-12T06:59:22.837Z,0.96
2019-03-12T07:02:22.418Z,1.08
2019-03-12T07:05:25.114Z,1.04
2019-03-12T07:08:06.914Z,1.19
2019-03-12T07:10:53.411Z,1.00
2019-03-12T07:13:44.187Z,1.08
2019-03-12T07:16:35.294Z,1.21
2019-03-12T07:19:13.145Z,1.09
2019-03-12T07:22:02.477Z,1.30
2019-03-12T07:25:08.310Z,1.19
2019-03-12T07:27:47.998Z,1.37
2019-03-12T07:30:46.875Z,1.51
2019-03-12T07:33:23.113Z,1.64
2019-03-12T07:36:04.236Z,1.66
2019-03-12T07:38:43.883Z,1.80
2019-03-12T07:41:46.695Z,1.81
2019-03-12T07:44:30.844Z,1.83
2019-03-12T07:47:34.885Z,1.87
2019-03-12T07:50:04.024Z,1.93
2019-03-12T07:53:03.914Z,1.98
2019-03-12T07:55:54.696Z,1.89
2019-03-12T07:58:37.444Z,2.03
2019-03-12T08:01:16.560Z,2.10
2019-03-12T08:04:07.216Z,2.14
2019-03-12T08:07:00.981Z,2.18
2019-03-12T08:09:54.838Z,2.36
2019-03-12T08:12:43.949Z,2.39
2019-03-12T08:15:33.432Z,2.52
2019-03-12T08:18:19.904Z,2.41
2019-03-12T08:21:03.396Z,2.51
2019-03-12T08:23:59.939Z,2.56
2019-03-12T08:26:41.621Z,2.67
2019-03-12T08:29:29.973Z,2.78
2019-03-12T08:32:19.389Z,2.72
2019-03-12T08:35:10.187Z,2.79
2019-03-12T08:37:59.346Z,2.90
2019-03-12T08:40:52.487Z,3.02
2019-03-12T08:43:28.026Z,3.07
2019-03-12T08:46:18.199Z,3.13
2019-03-12T08:49:07.620Z,3.21
2019-03-12T08:51:46.653Z,3.17
2019-03-12T08:54:27.546Z,3.25
2019-03-12T08:57:21.529Z,3.24
2019-03-12T09:00:12.436Z,3.25
2019-03-12T09:03:01.592Z,3.37
2019-03-12T09:05:50.543Z,3.34
2019-03-12T09:08:35.301Z,3.45
2019-03-12T09:11:24.754Z,3.54
2019-03-12T09:14:18.583Z,3.59
2019-03-12T09:17:18.390Z,3.69
2019-03-12T09:20:01.587Z,3.80
2019-03-12T09:22:42.607Z,3.93
2019-03-12T09:25:48.300Z,4.00
2019-03-12T09:28:41.789Z,4.02
2019-03-12T09:31:31.461Z,3.93
2019-03-12T09:34:20.812Z,4.03
2019-03-12T09:37:02.718Z,3.95
2019-03-12T09:39:50.417Z,3.87
2019-03-12T09:42:43.234Z,3.97
2019-03-12T09:45:32.732Z,4.07
2019-03-12T09:48:35.452Z,4.13
2019-03-12T09:51:37.981Z,4.33
2019-03-12T09:54:38.281Z,4.46
2019-03-12T09:57:28.673Z,4.49
2019-03-12T10:00:16.333Z,4.45
2019-03-12T10:02:59.721Z,4.49
2019-03-12T10:05:59.883Z,4.44
2019-03-12T10:08:49.247Z,4.58
2019-03-12T10:11:29.539Z,4.66
2019-03-12T10:14:10.615Z,4.87
2019-03-12T10:16:56.843Z,4.80
2019-03-12T10:19:47.173Z,4.64
2019-03-12T10:22:36.310Z,4.67
2019-03-12T10:25:25.418Z,4.81
2019-03-12T10:28:17.530Z,4.93
2019-03-12T10:31:06.971Z,5.02
2019-03-12T10:33:55.860Z,5.08
2019-03-12T10:36:49.432Z,5.20
2019-03-12T10:40:01.305Z,5.21
2019-03-12T10:42:41.256Z,5.20
2019-03-12T10:45:23.763Z,5.04
2019-03-12T10:47:56.120Z,5.07
2019-03-12T10:50:28.437Z,5.24
2019-03-12T10:53:00.308Z,5.30
2019-03-12T10:55:32.042Z,5.48
2019-03-12T10:58:03.911Z,5.45
2019-03-12T11:00:36.117Z,5.50
2019-03-12T11:03:09.436Z,5.68
2019-03-12T11:05:46.323Z,5.59
2019-03-12T11:08:15.032Z,5.62
2019-03-12T11:10:46.847Z,5.55
2019-03-12T11:13:18.639Z,5.80
2019-03-12T11:15:51.028Z,5.80
2019-03-12T11:18:22.737Z,5.82
2019-03-12T11:20:54.557Z,5.95
2019-03-12T11:23:26.347Z,5.96
2019-03-12T11:25:58.403Z,6.06
2019-03-12T11:28:30.210Z,6.08
2019-03-12T11:31:02.007Z,6.13
2019-03-12T11:33:33.799Z,6.36
2019-03-12T11:36:05.683Z,6.39
2019-03-12T11:38:37.547Z,6.56
2019-03-12T11:41:09.868Z,6.82
2019-03-12T11:43:41.604Z,7.01
2019-03-12T11:46:13.476Z,6.79
2019-03-12T11:48:45.334Z,6.83
2019-03-12T11:51:17.205Z,6.78
2019-03-12T11:53:48.988Z,6.75
2019-03-12T11:56:20.958Z,6.68
2019-03-12T11:58:52.729Z,6.88
2019-03-12T12:01:24.851Z,6.88
2019-03-12T12:03:56.642Z,7.02
2019-03-12T12:06:28.512Z,7.06
2019-03-12T12:09:00.358Z,7.47
2019-03-12T12:11:33.691Z,7.40
2019-03-12T12:14:05.554Z,7.47
2019-03-12T12:16:37.357Z,7.61
2019-03-12T12:19:10.150Z,7.70
2019-03-12T12:21:42.017Z,7.73
2019-03-12T12:24:13.814Z,7.71
2019-03-12T12:26:45.814Z,7.49
2019-03-12T12:29:17.607Z,7.65
2019-03-12T12:31:49.339Z,7.62
2019-03-12T12:34:22.097Z,7.61
2019-03-12T12:36:53.973Z,7.86
2019-03-12T12:39:25.704Z,7.94
2019-03-12T12:41:57.437Z,8.10
2019-03-12T12:44:29.493Z,8.13
2019-03-12T12:47:01.271Z,8.17
2019-03-12T12:49:33.124Z,8.11
2019-03-12T12:52:04.919Z,8.17
2019-03-12T12:54:36.813Z,8.34
2019-03-12T12:57:09.503Z,8.31
2019-03-12T12:59:41.474Z,8.58
2019-03-12T13:02:13.603Z,8.61
2019-03-12T13:04:45.405Z,8.52
2019-03-12T13:07:17.220Z,8.61
2019-03-12T13:09:48.952Z,8.86
2019-03-12T13:12:20.776Z,8.92
2019-03-12T13:14:52.485Z,8.77
2019-03-12T13:17:24.219Z,9.00
2019-03-12T13:19:55.944Z,8.89
2019-03-12T13:22:27.924Z,8.70
2019-03-12T13:24:59.651Z,8.55
2019-03-12T13:27:41.774Z,8.51
2019-03-12T13:30:05.468Z,8.75
2019-03-12T13:32:37.916Z,8.81
2019-03-12T13:35:10.656Z,8.71
2019-03-12T13:37:42.585Z,8.70
2019-03-12T13:40:16.064Z,8.77
2019-03-12T13:42:48.060Z,8.73
2019-03-12T13:45:20.352Z,8.63
2019-03-12T13:47:52.368Z,8.77
2019-03-12T13:50:24.322Z,8.70
2019-03-12T13:52:56.259Z,8.52
2019-03-12T13:55:28.088Z,8.56
2019-03-12T13:58:00.225Z,8.41
2019-03-12T14:00:33.524Z,8.31
2019-03-12T14:03:05.592Z,8.28
2019-03-12T14:05:37.408Z,8.29
2019-03-12T14:08:09.364Z,8.15
2019-03-12T14:10:41.239Z,8.03
2019-03-12T14:13:13.142Z,7.91
2019-03-12T14:15:44.997Z,7.89
2019-03-12T14:18:16.802Z,7.87
2019-03-12T14:20:52.055Z,7.85
2019-03-12T14:23:43.127Z,7.67
2019-03-12T14:26:15.710Z,7.73
2019-03-12T14:28:47.778Z,7.61
2019-03-12T14:31:20.624Z,7.64
2019-03-12T14:33:52.769Z,7.52
2019-03-12T14:36:24.562Z,7.51
2019-03-12T14:38:56.458Z,7.51
2019-03-12T14:41:28.248Z,7.48
2019-03-12T14:44:00.165Z,7.47
2019-03-12T14:46:32.043Z,7.40
2019-03-12T14:49:06.550Z,7.41
2019-03-12T14:52:09.282Z,7.41
2019-03-12T14:54:41.166Z,7.43
2019-03-12T14:57:13.226Z,7.40
2019-03-12T14:59:45.108Z,7.40
2019-03-12T15:02:17.225Z,7.41
2019-03-12T15:04:49.043Z,7.34
2019-03-12T15:07:20.919Z,7.44
2019-03-12T15:09:52.654Z,7.40
2019-03-12T15:12:24.387Z,7.40
2019-03-12T15:14:56.117Z,7.29
2019-03-12T15:17:27.854Z,7.40
2019-03-12T15:19:59.591Z,7.36
2019-03-12T15:22:31.352Z,7.36
2019-03-12T15:25:03.240Z,7.26
2019-03-12T15:27:35.042Z,7.40
2019-03-12T15:30:12.027Z,7.35
2019-03-12T15:32:43.762Z,7.31
2019-03-12T15:35:15.581Z,7.24
2019-03-12T15:37:47.713Z,7.46
2019-03-12T15:40:20.496Z,7.38
2019-03-12T15:42:52.236Z,7.37
2019-03-12T15:45:23.984Z,7.51
2019-03-12T15:47:55.804Z,7.38
2019-03-12T15:50:27.702Z,7.45
2019-03-12T15:52:59.565Z,7.48
2019-03-12T15:55:31.309Z,7.52
2019-03-12T15:58:03.183Z,7.54
2019-03-12T16:00:35.143Z,7.53
2019-03-12T16:03:06.955Z,7.87
2019-03-12T16:05:38.772Z,7.90
2019-03-12T16:08:10.812Z,7.94
2019-03-12T16:10:42.634Z,7.87
2019-03-12T16:13:14.704Z,7.78
2019-03-12T16:15:46.425Z,7.82
2019-03-12T16:18:18.190Z,7.76
2019-03-12T16:20:49.979Z,7.72
2019-03-12T16:23:21.711Z,7.74
2019-03-12T16:25:53.515Z,7.68
2019-03-12T16:28:25.320Z,7.53
2019-03-12T16:30:57.209Z,7.66
2019-03-12T16:33:28.940Z,7.52
2019-03-12T16:36:00.827Z,7.53
2019-03-12T16:38:32.707Z,7.55
2019-03-12T16:41:04.532Z,7.57
2019-03-12T16:43:36.390Z,7.45
2019-03-12T16:46:08.525Z,7.37
2019-03-12T16:48:40.315Z,7.38
2019-03-12T16:51:12.133Z,7.35
2019-03-12T16:53:43.870Z,7.13
2019-03-12T16:56:16.012Z,7.05
2019-03-12T16:58:47.731Z,7.07
2019-03-12T17:01:19.478Z,7.04
2019-03-12T17:03:51.732Z,7.10
2019-03-12T17:06:23.541Z,7.00
2019-03-12T17:08:55.346Z,6.83
2019-03-12T17:11:27.103Z,6.76
2019-03-12T17:13:58.909Z,6.74
2019-03-12T17:16:30.731Z,6.82
2019-03-12T17:19:02.467Z,6.82
2019-03-12T17:21:34.366Z,6.68
2019-03-12T17:24:06.505Z,6.78
2019-03-12T17:26:38.263Z,6.47
2019-03-12T17:29:11.245Z,6.56
2019-03-12T17:31:42.986Z,6.36
2019-03-12T17:34:14.723Z,6.35
2019-03-12T17:36:46.474Z,6.33
2019-03-12T17:39:18.189Z,6.57
2019-03-12T17:41:49.928Z,6.38
2019-03-12T17:44:21.652Z,6.51
2019-03-12T17:46:53.387Z,6.43
2019-03-12T17:49:25.289Z,6.40
2019-03-12T17:51:57.014Z,6.39
2019-03-12T17:54:31.921Z,6.40
2019-03-12T17:57:02.451Z,6.36
2019-03-12T17:59:34.675Z,6.23
2019-03-12T18:02:06.637Z,6.34
2019-03-12T18:04:38.371Z,6.31
2019-03-12T18:07:31.250Z,6.18
2019-03-12T18:10:03.176Z,6.12
2019-03-12T18:12:36.782Z,6.13
2019-03-12T18:15:11.014Z,6.15
2019-03-12T18:17:43.492Z,6.22
2019-03-12T18:20:16.468Z,6.14
2019-03-12T18:22:48.285Z,6.02
2019-03-12T18:25:25.804Z,6.06
2019-03-12T18:27:57.982Z,6.08
2019-03-12T18:30:30.148Z,6.01
2019-03-12T18:33:02.436Z,5.98
2019-03-12T18:35:34.319Z,5.98
2019-03-12T18:38:06.209Z,6.09
2019-03-12T18:40:38.023Z,5.98
2019-03-12T18:43:09.920Z,5.89
2019-03-12T18:45:41.732Z,5.96
2019-03-12T18:48:14.631Z,6.00
2019-03-12T18:50:47.076Z,6.01
2019-03-12T18:53:18.982Z,5.92
2019-03-12T18:56:05.859Z,5.81
2019-03-12T18:58:38.022Z,5.87
2019-03-12T19:01:13.526Z,5.86
2019-03-12T19:03:46.518Z,5.82
2019-03-12T19:06:18.496Z,5.87
2019-03-12T19:08:50.403Z,5.82
2019-03-12T19:11:22.424Z,5.73
2019-03-12T19:13:54.295Z,5.76
2019-03-12T19:16:26.113Z,5.73
2019-03-12T19:18:58.022Z,5.67
2019-03-12T19:21:29.949Z,5.60
2019-03-12T19:24:01.818Z,5.52
2019-03-12T19:26:34.613Z,5.68
2019-03-12T19:29:06.490Z,5.72
2019-03-12T19:31:53.552Z,5.58
2019-03-12T19:34:36.189Z,5.70
2019-03-12T19:37:08.251Z,5.59
2019-03-12T19:39:40.059Z,5.72
2019-03-12T19:42:11.968Z,5.68
2019-03-12T19:44:43.835Z,5.70
2019-03-12T19:47:15.716Z,5.66
2019-03-12T19:49:47.514Z,5.84
2019-03-12T19:52:20.410Z,5.79
2019-03-12T19:54:52.137Z,5.85
2019-03-12T19:57:24.916Z,5.83
2019-03-12T19:59:56.780Z,5.73
2019-03-12T20:02:29.037Z,5.68
2019-03-12T20:05:00.833Z,5.64
2019-03-12T20:07:33.930Z,5.76
2019-03-12T20:10:58.454Z,5.79
2019-03-12T20:14:31.275Z,5.79
2019-03-12T20:18:07.758Z,5.68
2019-03-12T20:21:22.707Z,5.75
2019-03-12T20:24:50.461Z,5.80
2019-03-12T20:28:19.927Z,5.73
2019-03-12T20:31:49.185Z,5.72
2019-03-12T20:35:21.675Z,5.79
2019-03-12T20:39:06.431Z,5.74
2019-03-12T20:42:32.665Z,5.76
2019-03-12T20:45:44.700Z,5.73
2019-03-12T20:48:49.092Z,5.82
2019-03-12T20:52:15.623Z,5.73
2019-03-12T20:56:20.883Z,5.80
2019-03-12T20:59:53.106Z,5.63
2019-03-12T21:03:27.476Z,5.57
2019-03-12T21:06:43.302Z,5.69
2019-03-12T21:10:17.327Z,5.71
2019-03-12T21:13:27.670Z,5.64
2019-03-12T21:17:00.446Z,5.67
2019-03-12T21:20:41.422Z,5.74
2019-03-12T21:23:55.126Z,5.69
2019-03-12T21:27:21.467Z,5.74
2019-03-12T21:29:52.458Z,5.80
2019-03-12T21:32:24.664Z,5.81
2019-03-12T21:34:56.483Z,5.61
2019-03-12T21:37:28.343Z,5.70
2019-03-12T21:40:00.339Z,5.65
2019-03-12T21:42:33.742Z,5.71
2019-03-12T21:45:06.003Z,5.67
2019-03-12T21:47:37.755Z,5.57
2019-03-12T21:50:09.864Z,5.55
2019-03-12T21:52:41.581Z,5.56
2019-03-12T21:55:13.594Z,5.38
2019-03-12T21:57:47.188Z,5.50
2019-03-12T22:00:19.706Z,5.44
2019-03-12T22:02:51.441Z,5.31
2019-03-12T22:05:23.237Z,5.28
2019-03-12T22:07:54.945Z,5.29
2019-03-12T22:10:26.846Z,5.33
2019-03-12T22:12:58.542Z,5.25
2019-03-12T22:15:30.348Z,5.38
2019-03-12T22:18:02.336Z,5.30
2019-03-12T22:20:34.063Z,5.34
2019-03-12T22:23:13.882Z,5.39
2019-03-12T22:25:45.772Z,5.40
2019-03-12T22:28:17.574Z,5.52
2019-03-12T22:30:50.418Z,5.59
2019-03-12T22:33:22.421Z,5.57
2019-03-12T22:35:54.158Z,5.58
2019-03-12T22:38:25.970Z,5.60
2019-03-12T22:40:57.963Z,5.54
2019-03-12T22:43:29.679Z,5.56
2019-03-12T22:46:01.420Z,5.59
2019-03-12T22:48:33.221Z,5.38
2019-03-12T22:51:05.041Z,5.53
2019-03-12T22:53:37.107Z,5.57
2019-03-12T22:56:09.079Z,5.57
2019-03-12T22:58:40.870Z,5.56
2019-03-12T23:01:30.533Z,5.51
2019-03-12T23:04:19.734Z,5.44
2019-03-12T23:07:09.221Z,5.58
2019-03-12T23:09:45.970Z,5.52
2019-03-12T23:12:22.514Z,5.61
2019-03-12T23:14:55.854Z,5.53
2019-03-12T23:17:28.682Z,5.67
2019-03-12T23:20:00.488Z,5.52
2019-03-12T23:22:32.742Z,5.61
2019-03-12T23:25:04.624Z,5.73
2019-03-12T23:27:38.199Z,5.73
2019-03-12T23:30:12.901Z,5.76
2019-03-12T23:32:44.780Z,5.66
2019-03-12T23:35:16.725Z,5.70
2019-03-12T23:37:48.599Z,5.61
2019-03-12T23:40:20.579Z,5.71
2019-03-12T23:42:52.302Z,5.55
2019-03-12T23:45:24.360Z,5.49
2019-03-12T23:47:56.220Z,5.58
2019-03-12T23:50:28.634Z,5.58
2019-03-12T23:53:00.526Z,5.42
2019-03-12T23:55:32.489Z,5.51
2019-03-12T23:58:04.438Z,5.61
